sensor_id;sensor_type;location;lat;lon;timestamp;P1;durP1;ratioP1;P2;durP2;ratioP2
17032;SDS011;63208;52.178;21.016;2022-10-31T00:01:24;777.00;;;725.77;;
17032;SDS011;63208;52.178;21.016;2022-10-31T00:03:54;786.60;;;735.03;;
17032;SDS011;63208;52.178;21.016;2022-10-31T00:06:22;770.73;;;719.50;;
17032;SDS011;63208;52.178;21.016;2022-10-31T00:08:51;761.70;;;710.97;;
17032;SDS011;63208;52.178;21.016;2022-10-31T00:11:19;767.23;;;716.57;;
17032;SDS011;63208;52.178;21.016;2022-10-31T00:13:48;765.67;;;714.53;;
17032;SDS011;63208;52.178;21.016;2022-10-31T00:16:15;769.53;;;718.23;;
17032;SDS011;63208;52.178;21.016;2022-10-31T00:18:43;773.70;;;721.80;;
17032;SDS011;63208;52.178;21.016;2022-10-31T00:21:14;762.13;;;711.37;;
17032;SDS011;63208;52.178;21.016;2022-10-31T00:23:41;796.63;;;745.13;;
17032;SDS011;63208;52.178;21.016;2022-10-31T00:26:08;789.20;;;737.53;;
17032;SDS011;63208;52.178;21.016;2022-10-31T00:28:35;766.87;;;715.40;;
17032;SDS011;63208;52.178;21.016;2022-10-31T00:31:05;775.03;;;723.57;;
17032;SDS011;63208;52.178;21.016;2022-10-31T00:33:33;766.20;;;715.33;;
17032;SDS011;63208;52.178;21.016;2022-10-31T00:36:02;785.10;;;732.90;;
17032;SDS011;63208;52.178;21.016;2022-10-31T00:38:30;788.30;;;736.50;;
17032;SDS011;63208;52.178;21.016;2022-10-31T00:40:58;787.30;;;735.27;;
17032;SDS011;63208;52.178;21.016;2022-10-31T00:43:25;769.03;;;718.27;;
17032;SDS011;63208;52.178;21.016;2022-10-31T00:45:52;738.73;;;688.60;;
17032;SDS011;63208;52.178;21.016;2022-10-31T00:48:20;743.93;;;693.03;;
17032;SDS011;63208;52.178;21.016;2022-10-31T00:50:47;713.73;;;664.40;;
17032;SDS011;63208;52.178;21.016;2022-10-31T00:53:14;718.47;;;668.90;;
17032;SDS011;63208;52.178;21.016;2022-10-31T00:55:41;727.13;;;677.17;;
17032;SDS011;63208;52.178;21.016;2022-10-31T00:58:08;737.07;;;687.13;;
17032;SDS011;63208;52.178;21.016;2022-10-31T01:00:35;769.83;;;718.57;;
17032;SDS011;63208;52.178;21.016;2022-10-31T01:03:02;761.20;;;710.00;;
17032;SDS011;63208;52.178;21.016;2022-10-31T01:05:31;736.53;;;686.17;;
17032;SDS011;63208;52.178;21.016;2022-10-31T01:07:58;750.37;;;699.23;;
17032;SDS011;63208;52.178;21.016;2022-10-31T01:10:25;750.00;;;699.47;;
17032;SDS011;63208;52.178;21.016;2022-10-31T01:12:52;765.30;;;714.43;;
17032;SDS011;63208;52.178;21.016;2022-10-31T01:15:20;756.70;;;705.03;;
17032;SDS011;63208;52.178;21.016;2022-10-31T01:17:48;749.17;;;699.10;;
17032;SDS011;63208;52.178;21.016;2022-10-31T01:20:16;748.53;;;697.37;;
17032;SDS011;63208;52.178;21.016;2022-10-31T01:22:45;762.93;;;711.73;;
17032;SDS011;63208;52.178;21.016;2022-10-31T01:25:12;742.00;;;691.80;;
17032;SDS011;63208;52.178;21.016;2022-10-31T01:27:39;762.77;;;712.17;;
17032;SDS011;63208;52.178;21.016;2022-10-31T01:30:06;751.63;;;700.37;;
17032;SDS011;63208;52.178;21.016;2022-10-31T01:32:34;744.80;;;694.17;;
17032;SDS011;63208;52.178;21.016;2022-10-31T01:35:01;765.00;;;713.77;;
17032;SDS011;63208;52.178;21.016;2022-10-31T01:37:28;758.03;;;707.20;;
17032;SDS011;63208;52.178;21.016;2022-10-31T01:39:57;755.27;;;704.40;;
17032;SDS011;63208;52.178;21.016;2022-10-31T01:42:24;760.17;;;709.17;;
17032;SDS011;63208;52.178;21.016;2022-10-31T01:44:53;782.83;;;730.97;;
17032;SDS011;63208;52.178;21.016;2022-10-31T01:47:37;767.23;;;716.10;;
17032;SDS011;63208;52.178;21.016;2022-10-31T01:50:11;737.47;;;686.80;;
17032;SDS011;63208;52.178;21.016;2022-10-31T01:52:42;744.73;;;693.97;;
17032;SDS011;63208;52.178;21.016;2022-10-31T01:55:13;753.90;;;702.97;;
17032;SDS011;63208;52.178;21.016;2022-10-31T01:57:44;746.60;;;695.83;;
17032;SDS011;63208;52.178;21.016;2022-10-31T02:00:14;764.37;;;711.97;;
17032;SDS011;63208;52.178;21.016;2022-10-31T02:02:42;768.87;;;717.67;;
17032;SDS011;63208;52.178;21.016;2022-10-31T02:05:12;741.23;;;691.00;;
17032;SDS011;63208;52.178;21.016;2022-10-31T02:07:43;748.17;;;697.60;;
17032;SDS011;63208;52.178;21.016;2022-10-31T02:10:19;725.10;;;675.13;;
17032;SDS011;63208;52.178;21.016;2022-10-31T02:12:48;742.87;;;692.40;;
17032;SDS011;63208;52.178;21.016;2022-10-31T02:15:18;738.37;;;687.67;;
17032;SDS011;63208;52.178;21.016;2022-10-31T02:17:45;715.87;;;666.63;;
17032;SDS011;63208;52.178;21.016;2022-10-31T02:20:14;738.57;;;688.43;;
17032;SDS011;63208;52.178;21.016;2022-10-31T02:22:49;737.80;;;687.20;;
17032;SDS011;63208;52.178;21.016;2022-10-31T02:25:46;754.13;;;703.50;;
17032;SDS011;63208;52.178;21.016;2022-10-31T02:28:34;740.70;;;690.33;;
17032;SDS011;63208;52.178;21.016;2022-10-31T02:31:17;728.50;;;678.43;;
17032;SDS011;63208;52.178;21.016;2022-10-31T02:33:55;731.97;;;681.63;;
17032;SDS011;63208;52.178;21.016;2022-10-31T02:36:27;758.80;;;707.33;;
17032;SDS011;63208;52.178;21.016;2022-10-31T02:41:56;751.13;;;699.37;;
17032;SDS011;63208;52.178;21.016;2022-10-31T02:44:34;763.73;;;713.03;;
17032;SDS011;63208;52.178;21.016;2022-10-31T02:47:06;738.17;;;687.57;;
17032;SDS011;63208;52.178;21.016;2022-10-31T02:49:39;725.30;;;675.13;;
17032;SDS011;63208;52.178;21.016;2022-10-31T02:52:14;725.57;;;675.27;;
17032;SDS011;63208;52.178;21.016;2022-10-31T02:54:44;737.10;;;686.77;;
17032;SDS011;63208;52.178;21.016;2022-10-31T02:57:12;758.40;;;707.23;;
17032;SDS011;63208;52.178;21.016;2022-10-31T02:59:43;731.17;;;680.33;;
17032;SDS011;63208;52.178;21.016;2022-10-31T03:02:30;693.73;;;644.43;;
17032;SDS011;63208;52.178;21.016;2022-10-31T03:05:32;691.53;;;642.53;;
17032;SDS011;63208;52.178;21.016;2022-10-31T03:08:09;699.77;;;650.43;;
17032;SDS011;63208;52.178;21.016;2022-10-31T03:10:41;732.63;;;681.90;;
17032;SDS011;63208;52.178;21.016;2022-10-31T03:13:12;721.33;;;671.13;;
17032;SDS011;63208;52.178;21.016;2022-10-31T03:15:48;746.47;;;695.13;;
17032;SDS011;63208;52.178;21.016;2022-10-31T03:18:20;738.53;;;687.53;;
17032;SDS011;63208;52.178;21.016;2022-10-31T03:20:52;721.27;;;670.63;;
17032;SDS011;63208;52.178;21.016;2022-10-31T03:23:25;704.43;;;654.77;;
17032;SDS011;63208;52.178;21.016;2022-10-31T03:25:54;717.93;;;667.17;;
17032;SDS011;63208;52.178;21.016;2022-10-31T03:28:24;704.03;;;653.80;;
17032;SDS011;63208;52.178;21.016;2022-10-31T03:30:54;701.33;;;651.10;;
17032;SDS011;63208;52.178;21.016;2022-10-31T03:33:26;706.60;;;656.37;;
17032;SDS011;63208;52.178;21.016;2022-10-31T03:35:55;725.13;;;674.40;;
17032;SDS011;63208;52.178;21.016;2022-10-31T03:38:26;694.57;;;645.20;;
17032;SDS011;63208;52.178;21.016;2022-10-31T03:40:55;705.93;;;655.50;;
17032;SDS011;63208;52.178;21.016;2022-10-31T03:43:26;710.97;;;660.57;;
17032;SDS011;63208;52.178;21.016;2022-10-31T03:45:56;688.80;;;639.70;;
17032;SDS011;63208;52.178;21.016;2022-10-31T03:48:25;729.20;;;678.47;;
17032;SDS011;63208;52.178;21.016;2022-10-31T03:50:56;727.63;;;676.47;;
17032;SDS011;63208;52.178;21.016;2022-10-31T03:53:30;712.27;;;661.60;;
17032;SDS011;63208;52.178;21.016;2022-10-31T03:56:01;714.07;;;663.83;;
17032;SDS011;63208;52.178;21.016;2022-10-31T03:58:34;689.27;;;639.97;;
17032;SDS011;63208;52.178;21.016;2022-10-31T04:01:04;705.40;;;655.63;;
17032;SDS011;63208;52.178;21.016;2022-10-31T04:03:35;718.43;;;668.00;;
17032;SDS011;63208;52.178;21.016;2022-10-31T04:06:05;681.60;;;632.43;;
17032;SDS011;63208;52.178;21.016;2022-10-31T04:08:36;713.90;;;663.60;;
17032;SDS011;63208;52.178;21.016;2022-10-31T04:11:08;684.87;;;635.80;;
17032;SDS011;63208;52.178;21.016;2022-10-31T04:13:38;698.73;;;648.60;;
17032;SDS011;63208;52.178;21.016;2022-10-31T04:16:08;710.87;;;660.77;;
17032;SDS011;63208;52.178;21.016;2022-10-31T04:18:37;698.43;;;648.60;;
17032;SDS011;63208;52.178;21.016;2022-10-31T04:21:05;697.53;;;647.63;;
17032;SDS011;63208;52.178;21.016;2022-10-31T04:23:33;706.30;;;656.47;;
17032;SDS011;63208;52.178;21.016;2022-10-31T04:26:01;688.27;;;638.73;;
17032;SDS011;63208;52.178;21.016;2022-10-31T04:28:29;704.13;;;653.87;;
17032;SDS011;63208;52.178;21.016;2022-10-31T04:49:21;684.40;;;634.10;;
17032;SDS011;63208;52.178;21.016;2022-10-31T04:51:51;685.77;;;635.97;;
17032;SDS011;63208;52.178;21.016;2022-10-31T04:54:18;704.03;;;653.47;;
17032;SDS011;63208;52.178;21.016;2022-10-31T04:56:45;696.33;;;646.17;;
17032;SDS011;63208;52.178;21.016;2022-10-31T04:59:12;681.87;;;632.27;;
17032;SDS011;63208;52.178;21.016;2022-10-31T05:01:40;709.40;;;658.77;;
17032;SDS011;63208;52.178;21.016;2022-10-31T05:04:07;700.83;;;650.40;;
17032;SDS011;63208;52.178;21.016;2022-10-31T05:06:34;704.73;;;654.77;;
17032;SDS011;63208;52.178;21.016;2022-10-31T05:09:01;688.63;;;639.00;;
17032;SDS011;63208;52.178;21.016;2022-10-31T05:11:43;707.47;;;657.00;;
17032;SDS011;63208;52.178;21.016;2022-10-31T05:14:11;673.57;;;624.20;;
17032;SDS011;63208;52.178;21.016;2022-10-31T05:16:39;694.83;;;644.67;;
17032;SDS011;63208;52.178;21.016;2022-10-31T05:19:06;707.70;;;656.80;;
17032;SDS011;63208;52.178;21.016;2022-10-31T05:21:33;698.80;;;648.53;;
17032;SDS011;63208;52.178;21.016;2022-10-31T05:24:00;713.63;;;663.10;;
17032;SDS011;63208;52.178;21.016;2022-10-31T05:26:39;697.37;;;647.57;;
17032;SDS011;63208;52.178;21.016;2022-10-31T05:29:09;696.73;;;646.70;;
17032;SDS011;63208;52.178;21.016;2022-10-31T05:31:36;697.73;;;647.60;;
17032;SDS011;63208;52.178;21.016;2022-10-31T05:34:04;712.63;;;661.70;;
17032;SDS011;63208;52.178;21.016;2022-10-31T05:36:31;684.83;;;635.00;;
17032;SDS011;63208;52.178;21.016;2022-10-31T05:38:58;685.33;;;635.37;;
17032;SDS011;63208;52.178;21.016;2022-10-31T05:41:26;692.50;;;642.63;;
17032;SDS011;63208;52.178;21.016;2022-10-31T05:43:53;695.53;;;645.83;;
17032;SDS011;63208;52.178;21.016;2022-10-31T05:46:19;688.27;;;638.47;;
17032;SDS011;63208;52.178;21.016;2022-10-31T05:49:36;492.97;;;451.07;;
17032;SDS011;63208;52.178;21.016;2022-10-31T05:52:03;704.23;;;655.40;;
17032;SDS011;63208;52.178;21.016;2022-10-31T05:54:30;748.07;;;699.33;;
17032;SDS011;63208;52.178;21.016;2022-10-31T06:07:06;767.60;;;716.27;;
17032;SDS011;63208;52.178;21.016;2022-10-31T06:09:33;774.50;;;722.27;;
17032;SDS011;63208;52.178;21.016;2022-10-31T06:12:00;788.90;;;736.63;;
17032;SDS011;63208;52.178;21.016;2022-10-31T06:14:27;810.17;;;757.90;;
17032;SDS011;63208;52.178;21.016;2022-10-31T06:16:54;799.60;;;747.13;;
17032;SDS011;63208;52.178;21.016;2022-10-31T06:19:22;803.10;;;751.13;;
17032;SDS011;63208;52.178;21.016;2022-10-31T06:21:49;760.50;;;708.20;;
17032;SDS011;63208;52.178;21.016;2022-10-31T06:24:18;821.73;;;768.87;;
17032;SDS011;63208;52.178;21.016;2022-10-31T06:26:45;770.20;;;719.33;;
17032;SDS011;63208;52.178;21.016;2022-10-31T06:29:12;740.97;;;689.93;;
17032;SDS011;63208;52.178;21.016;2022-10-31T06:31:40;806.60;;;754.73;;
17032;SDS011;63208;52.178;21.016;2022-10-31T06:34:07;766.27;;;716.00;;
17032;SDS011;63208;52.178;21.016;2022-10-31T06:36:34;803.10;;;751.20;;
17032;SDS011;63208;52.178;21.016;2022-10-31T06:39:01;792.57;;;739.77;;
17032;SDS011;63208;52.178;21.016;2022-10-31T06:41:33;741.90;;;691.23;;
17032;SDS011;63208;52.178;21.016;2022-10-31T06:44:01;753.50;;;702.50;;
17032;SDS011;63208;52.178;21.016;2022-10-31T06:46:28;760.03;;;707.90;;
17032;SDS011;63208;52.178;21.016;2022-10-31T06:48:56;723.13;;;673.30;;
17032;SDS011;63208;52.178;21.016;2022-10-31T06:51:23;771.53;;;719.67;;
17032;SDS011;63208;52.178;21.016;2022-10-31T06:53:50;749.53;;;697.30;;
17032;SDS011;63208;52.178;21.016;2022-10-31T06:56:17;751.60;;;699.30;;
17032;SDS011;63208;52.178;21.016;2022-10-31T06:58:46;763.17;;;711.87;;
17032;SDS011;63208;52.178;21.016;2022-10-31T07:01:13;780.23;;;728.57;;
17032;SDS011;63208;52.178;21.016;2022-10-31T07:03:40;784.77;;;732.83;;
17032;SDS011;63208;52.178;21.016;2022-10-31T07:06:07;744.50;;;693.13;;
17032;SDS011;63208;52.178;21.016;2022-10-31T07:08:35;758.23;;;706.07;;
17032;SDS011;63208;52.178;21.016;2022-10-31T07:11:02;742.17;;;690.70;;
17032;SDS011;63208;52.178;21.016;2022-10-31T07:13:45;720.43;;;669.43;;
17032;SDS011;63208;52.178;21.016;2022-10-31T07:16:13;773.50;;;721.33;;
17032;SDS011;63208;52.178;21.016;2022-10-31T07:18:40;735.90;;;685.47;;
17032;SDS011;63208;52.178;21.016;2022-10-31T07:21:07;766.37;;;714.00;;
17032;SDS011;63208;52.178;21.016;2022-10-31T07:23:35;765.33;;;714.13;;
17032;SDS011;63208;52.178;21.016;2022-10-31T07:26:09;742.37;;;691.60;;
17032;SDS011;63208;52.178;21.016;2022-10-31T07:29:01;768.73;;;717.90;;
17032;SDS011;63208;52.178;21.016;2022-10-31T07:37:04;708.87;;;658.23;;
17032;SDS011;63208;52.178;21.016;2022-10-31T07:39:58;724.50;;;673.47;;
17032;SDS011;63208;52.178;21.016;2022-10-31T07:42:25;730.87;;;680.27;;
17032;SDS011;63208;52.178;21.016;2022-10-31T07:48:05;714.63;;;662.53;;
17032;SDS011;63208;52.178;21.016;2022-10-31T07:50:51;746.10;;;695.87;;
17032;SDS011;63208;52.178;21.016;2022-10-31T07:53:19;741.63;;;690.70;;
17032;SDS011;63208;52.178;21.016;2022-10-31T07:55:46;780.43;;;728.90;;
17032;SDS011;63208;52.178;21.016;2022-10-31T07:58:14;719.83;;;669.53;;
17032;SDS011;63208;52.178;21.016;2022-10-31T08:00:42;759.33;;;707.93;;
17032;SDS011;63208;52.178;21.016;2022-10-31T08:03:13;768.20;;;716.67;;
17032;SDS011;63208;52.178;21.016;2022-10-31T08:05:48;775.87;;;724.53;;
17032;SDS011;63208;52.178;21.016;2022-10-31T08:11:20;742.93;;;693.20;;
17032;SDS011;63208;52.178;21.016;2022-10-31T08:17:11;775.83;;;723.77;;
17032;SDS011;63208;52.178;21.016;2022-10-31T08:19:54;790.70;;;738.00;;
17032;SDS011;63208;52.178;21.016;2022-10-31T08:29:00;771.73;;;719.67;;
17032;SDS011;63208;52.178;21.016;2022-10-31T08:33:58;783.83;;;731.83;;
17032;SDS011;63208;52.178;21.016;2022-10-31T08:39:57;773.27;;;722.07;;
17032;SDS011;63208;52.178;21.016;2022-10-31T08:42:38;775.97;;;722.83;;
17032;SDS011;63208;52.178;21.016;2022-10-31T08:45:15;749.23;;;696.57;;
17032;SDS011;63208;52.178;21.016;2022-10-31T08:47:57;769.73;;;717.47;;
17032;SDS011;63208;52.178;21.016;2022-10-31T08:50:26;787.07;;;734.13;;
17032;SDS011;63208;52.178;21.016;2022-10-31T08:55:48;795.13;;;741.53;;
17032;SDS011;63208;52.178;21.016;2022-10-31T09:01:44;806.17;;;752.97;;
17032;SDS011;63208;52.178;21.016;2022-10-31T09:18:05;821.70;;;768.17;;
17032;SDS011;63208;52.178;21.016;2022-10-31T09:20:33;852.33;;;798.60;;
17032;SDS011;63208;52.178;21.016;2022-10-31T09:23:02;847.93;;;794.13;;
17032;SDS011;63208;52.178;21.016;2022-10-31T09:27:55;835.87;;;781.70;;
17032;SDS011;63208;52.178;21.016;2022-10-31T09:30:35;853.70;;;797.43;;
17032;SDS011;63208;52.178;21.016;2022-10-31T09:36:32;845.77;;;792.10;;
17032;SDS011;63208;52.178;21.016;2022-10-31T09:39:00;866.20;;;810.90;;
17032;SDS011;63208;52.178;21.016;2022-10-31T09:47:08;896.03;;;838.43;;
17032;SDS011;63208;52.178;21.016;2022-10-31T09:49:55;870.37;;;815.30;;
17032;SDS011;63208;52.178;21.016;2022-10-31T09:52:46;905.43;;;849.60;;
17032;SDS011;63208;52.178;21.016;2022-10-31T09:55:39;882.07;;;826.80;;
17032;SDS011;63208;52.178;21.016;2022-10-31T09:58:23;892.70;;;836.20;;
17032;SDS011;63208;52.178;21.016;2022-10-31T10:03:54;912.83;;;856.50;;
17032;SDS011;63208;52.178;21.016;2022-10-31T10:18:27;899.20;;;842.13;;
17032;SDS011;63208;52.178;21.016;2022-10-31T10:31:20;930.87;;;873.33;;
17032;SDS011;63208;52.178;21.016;2022-10-31T10:33:58;909.53;;;853.27;;
17032;SDS011;63208;52.178;21.016;2022-10-31T10:36:30;966.27;;;907.63;;
17032;SDS011;63208;52.178;21.016;2022-10-31T10:39:03;940.60;;;882.30;;
17032;SDS011;63208;52.178;21.016;2022-10-31T10:41:46;937.30;;;878.93;;
17032;SDS011;63208;52.178;21.016;2022-10-31T10:44:49;943.83;;;886.00;;
17032;SDS011;63208;52.178;21.016;2022-10-31T10:50:52;931.23;;;872.50;;
17032;SDS011;63208;52.178;21.016;2022-10-31T10:53:28;946.43;;;889.10;;
17032;SDS011;63208;52.178;21.016;2022-10-31T10:56:15;942.67;;;884.90;;
17032;SDS011;63208;52.178;21.016;2022-10-31T10:59:27;971.00;;;911.13;;
17032;SDS011;63208;52.178;21.016;2022-10-31T11:01:56;956.47;;;896.87;;
17032;SDS011;63208;52.178;21.016;2022-10-31T11:04:57;995.27;;;934.37;;
17032;SDS011;63208;52.178;21.016;2022-10-31T11:07:42;988.73;;;928.60;;
17032;SDS011;63208;52.178;21.016;2022-10-31T11:10:11;995.43;;;933.83;;
17032;SDS011;63208;52.178;21.016;2022-10-31T11:12:40;1020.33;;;958.13;;
17032;SDS011;63208;52.178;21.016;2022-10-31T11:15:15;1008.13;;;946.17;;
17032;SDS011;63208;52.178;21.016;2022-10-31T11:17:47;1030.03;;;968.23;;
17032;SDS011;63208;52.178;21.016;2022-10-31T11:20:26;1044.47;;;981.30;;
17032;SDS011;63208;52.178;21.016;2022-10-31T11:23:05;1048.63;;;986.03;;
17032;SDS011;63208;52.178;21.016;2022-10-31T11:25:53;1034.07;;;972.00;;
17032;SDS011;63208;52.178;21.016;2022-10-31T11:28:22;1072.13;;;999.90;;
17032;SDS011;63208;52.178;21.016;2022-10-31T11:30:51;1028.57;;;966.43;;
17032;SDS011;63208;52.178;21.016;2022-10-31T11:33:22;1042.73;;;978.77;;
17032;SDS011;63208;52.178;21.016;2022-10-31T11:35:53;1078.63;;;999.90;;
17032;SDS011;63208;52.178;21.016;2022-10-31T11:38:23;1095.30;;;999.90;;
17032;SDS011;63208;52.178;21.016;2022-10-31T11:40:56;1045.17;;;982.03;;
17032;SDS011;63208;52.178;21.016;2022-10-31T11:43:26;992.17;;;932.27;;
17032;SDS011;63208;52.178;21.016;2022-10-31T11:48:20;1015.50;;;952.40;;
17032;SDS011;63208;52.178;21.016;2022-10-31T11:50:58;1007.40;;;945.50;;
17032;SDS011;63208;52.178;21.016;2022-10-31T11:53:52;1014.40;;;952.03;;
17032;SDS011;63208;52.178;21.016;2022-10-31T11:56:22;1029.10;;;966.37;;
17032;SDS011;63208;52.178;21.016;2022-10-31T11:59:01;1013.57;;;951.37;;
17032;SDS011;63208;52.178;21.016;2022-10-31T12:01:31;1025.80;;;962.77;;
17032;SDS011;63208;52.178;21.016;2022-10-31T12:04:02;1060.47;;;995.03;;
17032;SDS011;63208;52.178;21.016;2022-10-31T12:06:36;1056.63;;;991.80;;
17032;SDS011;63208;52.178;21.016;2022-10-31T12:15:36;993.03;;;930.53;;
17032;SDS011;63208;52.178;21.016;2022-10-31T12:18:22;1014.93;;;952.03;;
17032;SDS011;63208;52.178;21.016;2022-10-31T12:24:39;1003.53;;;942.00;;
17032;SDS011;63208;52.178;21.016;2022-10-31T12:27:40;978.07;;;917.13;;
17032;SDS011;63208;52.178;21.016;2022-10-31T12:34:22;976.37;;;916.60;;
17032;SDS011;63208;52.178;21.016;2022-10-31T12:37:48;977.50;;;918.00;;
17032;SDS011;63208;52.178;21.016;2022-10-31T12:40:31;971.83;;;912.10;;
17032;SDS011;63208;52.178;21.016;2022-10-31T12:43:13;967.83;;;907.50;;
17032;SDS011;63208;52.178;21.016;2022-10-31T12:45:52;984.80;;;925.37;;
17032;SDS011;63208;52.178;21.016;2022-10-31T12:55:28;979.90;;;919.60;;
17032;SDS011;63208;52.178;21.016;2022-10-31T12:59:25;973.53;;;913.17;;
17032;SDS011;63208;52.178;21.016;2022-10-31T13:01:55;957.47;;;897.67;;
17032;SDS011;63208;52.178;21.016;2022-10-31T13:29:14;968.90;;;908.97;;
17032;SDS011;63208;52.178;21.016;2022-10-31T13:32:23;962.83;;;902.97;;
17032;SDS011;63208;52.178;21.016;2022-10-31T13:35:40;977.73;;;917.57;;
17032;SDS011;63208;52.178;21.016;2022-10-31T13:38:47;983.03;;;921.63;;
17032;SDS011;63208;52.178;21.016;2022-10-31T13:41:43;1017.40;;;955.17;;
17032;SDS011;63208;52.178;21.016;2022-10-31T13:44:15;998.63;;;937.27;;
17032;SDS011;63208;52.178;21.016;2022-10-31T13:46:46;1009.33;;;947.00;;
17032;SDS011;63208;52.178;21.016;2022-10-31T13:49:23;1001.93;;;940.40;;
17032;SDS011;63208;52.178;21.016;2022-10-31T13:58:26;1008.77;;;945.20;;
17032;SDS011;63208;52.178;21.016;2022-10-31T14:01:15;992.37;;;931.67;;
17032;SDS011;63208;52.178;21.016;2022-10-31T14:08:17;955.87;;;895.87;;
17032;SDS011;63208;52.178;21.016;2022-10-31T14:13:12;956.70;;;897.83;;
17032;SDS011;63208;52.178;21.016;2022-10-31T14:15:42;972.70;;;913.50;;
17032;SDS011;63208;52.178;21.016;2022-10-31T14:18:21;960.23;;;901.13;;
17032;SDS011;63208;52.178;21.016;2022-10-31T14:20:50;968.40;;;908.93;;
17032;SDS011;63208;52.178;21.016;2022-10-31T14:26:53;941.73;;;883.67;;
17032;SDS011;63208;52.178;21.016;2022-10-31T14:29:24;942.20;;;883.57;;
17032;SDS011;63208;52.178;21.016;2022-10-31T14:32:18;949.80;;;891.00;;
17032;SDS011;63208;52.178;21.016;2022-10-31T14:41:49;927.40;;;869.20;;
17032;SDS011;63208;52.178;21.016;2022-10-31T14:44:43;904.93;;;848.17;;
17032;SDS011;63208;52.178;21.016;2022-10-31T14:47:23;939.83;;;881.70;;
17032;SDS011;63208;52.178;21.016;2022-10-31T14:50:09;927.53;;;869.93;;
17032;SDS011;63208;52.178;21.016;2022-10-31T14:52:48;939.27;;;880.13;;
17032;SDS011;63208;52.178;21.016;2022-10-31T14:55:18;957.37;;;897.43;;
17032;SDS011;63208;52.178;21.016;2022-10-31T14:57:47;953.03;;;893.97;;
17032;SDS011;63208;52.178;21.016;2022-10-31T15:00:19;964.37;;;903.90;;
17032;SDS011;63208;52.178;21.016;2022-10-31T15:02:50;955.60;;;897.10;;
17032;SDS011;63208;52.178;21.016;2022-10-31T15:05:27;976.50;;;915.80;;
17032;SDS011;63208;52.178;21.016;2022-10-31T15:07:56;958.63;;;898.53;;
17032;SDS011;63208;52.178;21.016;2022-10-31T15:10:25;994.93;;;933.63;;
17032;SDS011;63208;52.178;21.016;2022-10-31T15:12:54;956.37;;;896.67;;
17032;SDS011;63208;52.178;21.016;2022-10-31T15:18:29;940.20;;;881.07;;
17032;SDS011;63208;52.178;21.016;2022-10-31T15:20:56;983.90;;;923.70;;
17032;SDS011;63208;52.178;21.016;2022-10-31T15:23:24;949.97;;;890.37;;
17032;SDS011;63208;52.178;21.016;2022-10-31T15:25:59;1001.53;;;940.63;;
17032;SDS011;63208;52.178;21.016;2022-10-31T15:29:14;974.03;;;914.80;;
17032;SDS011;63208;52.178;21.016;2022-10-31T15:31:59;962.97;;;903.43;;
17032;SDS011;63208;52.178;21.016;2022-10-31T15:34:32;987.17;;;925.03;;
17032;SDS011;63208;52.178;21.016;2022-10-31T15:42:25;935.03;;;868.07;;
17032;SDS011;63208;52.178;21.016;2022-10-31T15:47:55;903.67;;;845.73;;
17032;SDS011;63208;52.178;21.016;2022-10-31T16:00:05;892.43;;;835.40;;
17032;SDS011;63208;52.178;21.016;2022-10-31T16:02:32;906.50;;;849.37;;
17032;SDS011;63208;52.178;21.016;2022-10-31T16:05:00;911.63;;;853.47;;
17032;SDS011;63208;52.178;21.016;2022-10-31T16:07:30;926.00;;;867.40;;
17032;SDS011;63208;52.178;21.016;2022-10-31T16:12:42;920.23;;;861.70;;
17032;SDS011;63208;52.178;21.016;2022-10-31T16:15:14;911.03;;;852.83;;
17032;SDS011;63208;52.178;21.016;2022-10-31T16:17:43;931.40;;;872.93;;
17032;SDS011;63208;52.178;21.016;2022-10-31T16:20:18;921.87;;;863.43;;
17032;SDS011;63208;52.178;21.016;2022-10-31T16:22:48;914.77;;;856.50;;
17032;SDS011;63208;52.178;21.016;2022-10-31T16:25:33;895.07;;;837.97;;
17032;SDS011;63208;52.178;21.016;2022-10-31T16:28:15;938.63;;;875.23;;
17032;SDS011;63208;52.178;21.016;2022-10-31T16:33:26;918.47;;;859.53;;
17032;SDS011;63208;52.178;21.016;2022-10-31T16:35:56;922.33;;;863.80;;
17032;SDS011;63208;52.178;21.016;2022-10-31T16:38:48;925.67;;;866.50;;
17032;SDS011;63208;52.178;21.016;2022-10-31T16:41:15;912.87;;;854.07;;
17032;SDS011;63208;52.178;21.016;2022-10-31T16:47:11;927.23;;;868.67;;
17032;SDS011;63208;52.178;21.016;2022-10-31T16:59:02;963.93;;;902.83;;
17032;SDS011;63208;52.178;21.016;2022-10-31T17:02:25;960.97;;;899.33;;
17032;SDS011;63208;52.178;21.016;2022-10-31T17:04:52;943.33;;;883.00;;
17032;SDS011;63208;52.178;21.016;2022-10-31T17:07:20;961.60;;;900.17;;
17032;SDS011;63208;52.178;21.016;2022-10-31T17:09:47;976.90;;;915.10;;
17032;SDS011;63208;52.178;21.016;2022-10-31T17:12:23;956.63;;;895.43;;
17032;SDS011;63208;52.178;21.016;2022-10-31T17:14:55;959.37;;;898.20;;
17032;SDS011;63208;52.178;21.016;2022-10-31T17:17:24;984.97;;;922.97;;
17032;SDS011;63208;52.178;21.016;2022-10-31T17:19:51;1018.27;;;954.40;;
17032;SDS011;63208;52.178;21.016;2022-10-31T17:22:24;861.67;;;794.13;;
17032;SDS011;63208;52.178;21.016;2022-10-31T17:24:51;863.83;;;809.53;;
17032;SDS011;63208;52.178;21.016;2022-10-31T17:27:19;995.30;;;934.57;;
17032;SDS011;63208;52.178;21.016;2022-10-31T17:29:46;1006.80;;;943.30;;
17032;SDS011;63208;52.178;21.016;2022-10-31T17:35:48;953.30;;;893.97;;
17032;SDS011;63208;52.178;21.016;2022-10-31T17:38:16;991.60;;;928.80;;
17032;SDS011;63208;52.178;21.016;2022-10-31T17:40:43;964.93;;;903.77;;
17032;SDS011;63208;52.178;21.016;2022-10-31T17:43:10;968.80;;;907.13;;
17032;SDS011;63208;52.178;21.016;2022-10-31T17:45:38;960.87;;;899.53;;
17032;SDS011;63208;52.178;21.016;2022-10-31T17:48:08;978.30;;;915.77;;
17032;SDS011;63208;52.178;21.016;2022-10-31T17:53:41;955.60;;;895.10;;
17032;SDS011;63208;52.178;21.016;2022-10-31T17:56:15;940.03;;;880.33;;
17032;SDS011;63208;52.178;21.016;2022-10-31T17:58:59;950.00;;;888.37;;
17032;SDS011;63208;52.178;21.016;2022-10-31T18:01:48;958.77;;;898.17;;
17032;SDS011;63208;52.178;21.016;2022-10-31T18:04:31;955.03;;;893.17;;
17032;SDS011;63208;52.178;21.016;2022-10-31T18:06:59;953.07;;;892.07;;
17032;SDS011;63208;52.178;21.016;2022-10-31T18:09:27;957.87;;;895.47;;
17032;SDS011;63208;52.178;21.016;2022-10-31T18:11:58;928.13;;;869.50;;
17032;SDS011;63208;52.178;21.016;2022-10-31T18:23:57;924.93;;;867.00;;
17032;SDS011;63208;52.178;21.016;2022-10-31T18:26:27;950.37;;;890.87;;